Hlavní strana
METAR-TAF:

METAR-TAF

Letiště :

Letiště Oslo

Oslo, Norsko

zeměpisná šířka: 60-12N, zeměpisná délka: 011-05E, výška: 208 m

Aktuální stav počasí

Zpráva byla vytvořena před 32 minutami, v 21:20 UTC
Jihojihozápadní vítr 10 kt
Teplota 2°C
Vlhkost vzduchu 64%
Tlak 993 hPa
Viditelnost 10 km a více
Žádná oblačnost pod 1500 m, nevyskytují se cumulonimby.

METAR: ENGM 182120Z 21010KT CAVOK 02/M04 Q0993 NOSIG

Čas: 22:52 (21:52 UTC)

Předpověď počasí

Předpověď platná od 18 v 18 UTC do 19 v 18 UTC
Jižní vítr 8 kt
Viditelnost 10 km a více
Žádná oblačnost pod 1500 m, nevyskytují se cumulonimby.

TAF: ENGM 1818/1918 19008KT CAVOK

Stav a předpovědi počasí z více než 4 000 letišť (zprávy METAR a TAF).

Červené a žluté tečky na mapě představují dostupné meteorologické stanice.

Když kurzor umístíte na tečku, zobrazí se název stanice.

Pak kliknutím zobrazíte stav a předpověď počasí.

Chcete-li změnit mapu, kliknutím na zelené tlačítko se znaménkem +mapu přiblížíte, kliknutím na zelené tlačítko se znaménkem – mapu oddálíte a kliknutím na zelené šipky přejdete na sousední mapy.


METAR-TAF: